createdAt,value
2019-02-07T00:00:52.553Z,88.87
2019-02-07T00:03:21.847Z,91.87
2019-02-07T00:05:50.969Z,78.87
2019-02-07T00:08:20.759Z,89.67
2019-02-07T00:10:50.071Z,87.07
2019-02-07T00:13:19.259Z,90.90
2019-02-07T00:15:48.484Z,79.63
2019-02-07T00:18:17.876Z,93.90
2019-02-07T00:20:47.209Z,100.67
2019-02-07T00:23:16.994Z,99.53
2019-02-07T00:25:46.226Z,92.97
2019-02-07T00:28:15.627Z,95.67
2019-02-07T00:30:44.943Z,84.07
2019-02-07T00:33:14.140Z,94.17
2019-02-07T00:35:43.461Z,76.47
2019-02-07T00:38:12.950Z,94.07
2019-02-07T00:40:42.081Z,90.73
2019-02-07T00:43:11.363Z,87.27
2019-02-07T00:45:40.588Z,93.33
2019-02-07T00:48:10.296Z,88.73
2019-02-07T00:50:39.427Z,88.63
2019-02-07T00:53:08.950Z,96.33
2019-02-07T00:55:38.243Z,103.30
2019-02-07T00:58:07.469Z,92.13
2019-02-07T01:00:36.943Z,96.47
2019-02-07T01:03:06.270Z,84.00
2019-02-07T01:05:35.763Z,97.03
2019-02-07T01:08:05.876Z,95.97
2019-02-07T01:10:35.165Z,97.47
2019-02-07T01:13:04.900Z,100.47
2019-02-07T01:15:34.381Z,85.27
2019-02-07T01:18:03.702Z,93.73
2019-02-07T01:20:33.213Z,104.43
2019-02-07T01:23:02.432Z,83.13
2019-02-07T01:25:31.927Z,87.73
2019-02-07T01:28:01.255Z,89.87
2019-02-07T01:30:31.261Z,84.97
2019-02-07T01:33:00.574Z,82.67
2019-02-07T01:35:29.872Z,82.27
2019-02-07T01:37:59.115Z,82.00
2019-02-07T01:40:28.413Z,80.97
2019-02-07T01:42:57.645Z,77.93
2019-02-07T01:45:26.918Z,84.43
2019-02-07T01:47:56.345Z,86.67
2019-02-07T01:50:26.532Z,86.30
2019-02-07T01:52:55.972Z,81.13
2019-02-07T01:55:25.368Z,87.50
2019-02-07T01:57:54.591Z,73.20
2019-02-07T02:00:23.992Z,78.90
2019-02-07T02:02:53.406Z,76.30
2019-02-07T02:05:22.828Z,76.33
2019-02-07T02:07:52.221Z,76.97
2019-02-07T02:10:26.758Z,70.53
2019-02-07T02:12:56.144Z,80.63
2019-02-07T02:15:26.271Z,77.00
2019-02-07T02:17:55.968Z,67.70
2019-02-07T02:20:26.448Z,71.67
2019-02-07T02:22:56.492Z,54.20
2019-02-07T02:25:25.818Z,55.63
2019-02-07T02:27:55.312Z,52.13
2019-02-07T02:30:27.109Z,65.95
2019-02-07T02:32:56.286Z,58.93
2019-02-07T02:35:25.523Z,65.20
2019-02-07T02:37:55.021Z,63.90
2019-02-07T02:40:24.337Z,58.90
2019-02-07T02:42:53.831Z,58.30
2019-02-07T02:45:36.647Z,57.97
2019-02-07T02:47:55.601Z,57.07
2019-02-07T02:50:25.239Z,50.73
2019-02-07T02:52:54.644Z,53.10
2019-02-07T02:55:34.237Z,49.23
2019-02-07T02:58:03.830Z,57.70
2019-02-07T03:00:52.588Z,51.87
2019-02-07T03:03:26.370Z,56.87
2019-02-07T03:06:09.512Z,45.27
2019-02-07T03:08:46.737Z,57.70
2019-02-07T03:11:26.457Z,54.50
2019-02-07T03:14:15.639Z,62.50
2019-02-07T03:17:02.114Z,50.50
2019-02-07T03:19:49.577Z,51.77
2019-02-07T03:22:36.589Z,56.17
2019-02-07T03:25:11.360Z,57.17
2019-02-07T03:27:45.226Z,57.77
2019-02-07T03:30:27.975Z,50.87
2019-02-07T03:33:15.399Z,54.70
2019-02-07T03:35:46.268Z,57.07
2019-02-07T03:38:17.059Z,51.70
2019-02-07T03:40:48.300Z,61.97
2019-02-07T03:43:37.219Z,62.43
2019-02-07T03:46:10.711Z,51.67
2019-02-07T03:48:47.963Z,51.77
2019-02-07T03:51:31.438Z,58.10
2019-02-07T03:54:18.789Z,58.90
2019-02-07T03:57:01.700Z,60.30
2019-02-07T03:59:38.370Z,58.13
2019-02-07T04:02:18.513Z,56.23
2019-02-07T04:04:58.261Z,52.60
2019-02-07T04:07:37.731Z,55.57
2019-02-07T04:10:12.375Z,56.97
2019-02-07T04:12:55.039Z,55.60
2019-02-07T04:15:31.564Z,59.87
2019-02-07T04:18:17.055Z,59.17
2019-02-07T04:20:47.964Z,52.17
2019-02-07T04:23:21.607Z,61.33
2019-02-07T04:25:52.467Z,60.93
2019-02-07T04:28:26.423Z,58.63
2019-02-07T04:31:12.438Z,59.23
2019-02-07T04:33:45.916Z,63.13
2019-02-07T04:36:19.460Z,60.10
2019-02-07T04:38:56.051Z,55.97
2019-02-07T04:41:26.853Z,52.23
2019-02-07T04:44:03.588Z,48.27
2019-02-07T04:46:50.363Z,50.73
2019-02-07T04:49:30.467Z,61.27
2019-02-07T04:52:13.169Z,56.97
2019-02-07T04:54:52.806Z,59.97
2019-02-07T04:57:23.644Z,48.80
2019-02-07T04:59:57.316Z,54.20
2019-02-07T05:02:31.115Z,52.50
2019-02-07T05:05:02.220Z,63.43
2019-02-07T05:07:39.055Z,57.40
2019-02-07T05:10:29.467Z,54.27
2019-02-07T05:13:16.471Z,58.63
2019-02-07T05:15:50.312Z,58.17
2019-02-07T05:18:37.682Z,53.17
2019-02-07T05:21:20.779Z,63.77
2019-02-07T05:23:54.516Z,61.97
2019-02-07T05:26:25.710Z,56.37
2019-02-07T05:28:59.453Z,52.80
2019-02-07T05:31:30.214Z,59.93
2019-02-07T05:34:06.698Z,62.40
2019-02-07T05:36:42.329Z,58.20
2019-02-07T05:39:28.249Z,65.47
2019-02-07T05:42:01.970Z,61.77
2019-02-07T05:44:35.756Z,61.60
2019-02-07T05:47:19.131Z,67.30
2019-02-07T05:50:08.401Z,59.27
2019-02-07T05:52:55.462Z,60.90
2019-02-07T05:55:42.435Z,72.15
2019-02-07T05:58:15.839Z,59.70
2019-02-07T06:00:58.613Z,57.03
2019-02-07T06:03:32.338Z,66.30
2019-02-07T06:06:03.063Z,56.30
2019-02-07T06:08:36.438Z,75.05
2019-02-07T06:11:19.946Z,52.43
2019-02-07T06:13:53.625Z,58.07
2019-02-07T06:16:24.440Z,61.87
2019-02-07T06:19:07.620Z,60.20
2019-02-07T06:21:50.547Z,61.60
2019-02-07T06:24:37.945Z,57.30
2019-02-07T06:27:18.050Z,55.20
2019-02-07T06:29:58.064Z,65.77
2019-02-07T06:32:28.953Z,55.63
2019-02-07T06:35:02.527Z,61.03
2019-02-07T06:37:50.593Z,59.57
2019-02-07T06:40:37.218Z,64.67
2019-02-07T06:43:24.472Z,60.93
2019-02-07T06:46:00.767Z,66.93
2019-02-07T06:48:37.781Z,56.13
2019-02-07T06:51:11.797Z,59.03
2019-02-07T06:53:51.861Z,61.83
2019-02-07T06:56:22.788Z,56.40
2019-02-07T06:58:56.483Z,55.83
2019-02-07T07:01:30.238Z,54.93
2019-02-07T07:04:13.246Z,63.60
2019-02-07T07:07:00.336Z,57.10
2019-02-07T07:09:37.223Z,53.03
2019-02-07T07:12:19.926Z,63.83
2019-02-07T07:15:05.696Z,65.17
2019-02-07T07:17:45.285Z,53.93
2019-02-07T07:20:25.039Z,55.53
2019-02-07T07:23:01.475Z,60.13
2019-02-07T07:25:35.345Z,51.87
2019-02-07T07:28:06.450Z,55.03
2019-02-07T07:30:40.289Z,62.93
2019-02-07T07:33:11.183Z,57.83
2019-02-07T07:35:57.968Z,59.67
2019-02-07T07:38:31.127Z,55.87
2019-02-07T07:41:07.634Z,58.37
2019-02-07T07:43:44.582Z,57.97
2019-02-07T07:46:30.348Z,63.73
2019-02-07T07:49:04.023Z,66.57
2019-02-07T07:51:34.808Z,63.17
2019-02-07T07:54:05.792Z,65.10
2019-02-07T07:56:42.860Z,61.13
2019-02-07T07:59:19.473Z,58.37
2019-02-07T08:02:08.501Z,68.00
2019-02-07T08:04:39.317Z,62.83
2019-02-07T08:07:12.991Z,65.10
2019-02-07T08:09:43.823Z,65.13
2019-02-07T08:12:14.667Z,68.80
2019-02-07T08:14:57.345Z,71.57
2019-02-07T08:17:47.424Z,68.37
2019-02-07T08:20:19.030Z,73.87
2019-02-07T08:22:55.469Z,67.77
2019-02-07T08:25:26.522Z,73.73
2019-02-07T08:28:13.466Z,67.93
2019-02-07T08:31:00.657Z,74.23
2019-02-07T08:33:47.027Z,81.17
2019-02-07T08:36:17.778Z,80.97
2019-02-07T08:38:57.434Z,76.03
2019-02-07T08:41:46.565Z,85.80
2019-02-07T08:44:26.459Z,83.97
2019-02-07T08:47:03.358Z,90.13
2019-02-07T08:49:40.113Z,85.03
2019-02-07T08:52:27.071Z,88.27
2019-02-07T08:55:16.210Z,76.90
2019-02-07T08:57:46.984Z,94.83
2019-02-07T09:00:31.017Z,89.47
2019-02-07T09:03:01.897Z,96.23
2019-02-07T09:05:33.223Z,84.87
2019-02-07T09:08:19.199Z,97.23
2019-02-07T09:11:06.196Z,100.53
2019-02-07T09:13:43.538Z,95.87
2019-02-07T09:16:17.316Z,96.80
2019-02-07T09:18:54.331Z,94.77
2019-02-07T09:21:39.974Z,93.87
2019-02-07T09:24:13.528Z,105.10
2019-02-07T09:26:56.323Z,98.63
2019-02-07T09:29:45.207Z,92.73
2019-02-07T09:32:30.962Z,97.97
2019-02-07T09:35:01.764Z,96.53
2019-02-07T09:37:48.587Z,90.33
2019-02-07T09:40:22.493Z,95.00
2019-02-07T09:42:53.459Z,85.43
2019-02-07T09:45:27.342Z,103.77
2019-02-07T09:48:01.423Z,96.47
2019-02-07T09:50:48.455Z,99.57
2019-02-07T09:53:24.870Z,96.47
2019-02-07T09:55:58.271Z,97.13
2019-02-07T09:58:41.152Z,108.53
2019-02-07T10:01:29.403Z,94.60
2019-02-07T10:04:03.340Z,95.33
2019-02-07T10:06:50.041Z,101.30
2019-02-07T10:09:21.159Z,89.47
2019-02-07T10:11:55.065Z,92.67
2019-02-07T10:14:26.413Z,92.63
2019-02-07T10:16:57.324Z,98.70
2019-02-07T10:19:37.006Z,99.00
2019-02-07T10:22:25.796Z,100.77
2019-02-07T10:25:05.594Z,89.63
2019-02-07T10:27:51.416Z,90.33
2019-02-07T10:30:40.347Z,92.90
2019-02-07T10:33:13.974Z,87.40
2019-02-07T10:35:44.656Z,94.20
2019-02-07T10:38:15.567Z,88.03
2019-02-07T10:40:55.580Z,87.70
2019-02-07T10:43:42.547Z,87.57
2019-02-07T10:46:16.235Z,85.40
2019-02-07T10:48:50.074Z,91.70
2019-02-07T10:51:32.677Z,101.57
2019-02-07T10:54:06.309Z,83.63
2019-02-07T10:56:52.197Z,79.30
2019-02-07T10:59:23.241Z,90.80
2019-02-07T11:02:06.064Z,92.13
2019-02-07T11:04:37.045Z,89.37
2019-02-07T11:07:25.296Z,86.10
2019-02-07T11:10:12.529Z,97.17
2019-02-07T11:12:59.747Z,74.60
2019-02-07T11:15:33.319Z,79.83
2019-02-07T11:18:04.139Z,86.20
2019-02-07T11:20:41.126Z,80.87
2019-02-07T11:23:11.921Z,80.47
2019-02-07T11:25:51.639Z,85.73
2019-02-07T11:28:28.306Z,87.00
2019-02-07T11:31:05.060Z,89.07
2019-02-07T11:33:42.083Z,86.77
2019-02-07T11:36:15.868Z,78.93
2019-02-07T11:38:49.648Z,80.87
2019-02-07T11:41:20.537Z,85.80
2019-02-07T11:43:51.642Z,81.03
2019-02-07T11:46:25.163Z,76.97
2019-02-07T11:49:06.837Z,80.90
2019-02-07T11:51:34.003Z,76.30
2019-02-07T11:54:08.064Z,84.30
2019-02-07T11:56:53.890Z,87.10
2019-02-07T11:59:24.713Z,75.50
2019-02-07T12:02:08.800Z,85.80
2019-02-07T12:04:33.950Z,98.47
2019-02-07T12:07:19.504Z,81.03
2019-02-07T12:09:50.286Z,93.27
2019-02-07T12:12:36.872Z,85.80
2019-02-07T12:15:13.629Z,81.73
2019-02-07T12:17:47.144Z,79.70
2019-02-07T12:20:18.058Z,78.47
2019-02-07T12:23:00.749Z,89.63
2019-02-07T12:25:46.486Z,93.33
2019-02-07T12:28:29.394Z,89.67
2019-02-07T12:31:18.439Z,84.70
2019-02-07T12:34:05.421Z,84.57
2019-02-07T12:36:41.953Z,82.97
2019-02-07T12:39:13.142Z,91.97
2019-02-07T12:41:53.028Z,97.17
2019-02-07T12:44:29.529Z,86.60
2019-02-07T12:47:12.172Z,88.87
2019-02-07T12:49:45.796Z,90.43
2019-02-07T12:52:28.795Z,97.50
2019-02-07T12:55:15.072Z,91.37
2019-02-07T12:58:01.724Z,89.80
2019-02-07T13:00:44.767Z,89.80
2019-02-07T13:03:18.501Z,84.53
2019-02-07T13:06:05.365Z,82.17
2019-02-07T13:08:52.371Z,88.30
2019-02-07T13:11:29.594Z,91.93
2019-02-07T13:14:06.380Z,96.03
2019-02-07T13:16:40.232Z,96.33
2019-02-07T13:19:11.112Z,95.93
2019-02-07T13:21:42.054Z,95.60
2019-02-07T13:24:16.118Z,95.47
2019-02-07T13:27:03.133Z,102.87
2019-02-07T13:29:45.230Z,90.17
2019-02-07T13:32:29.617Z,98.93
2019-02-07T13:35:09.967Z,105.33
2019-02-07T13:37:57.156Z,100.93
2019-02-07T13:40:46.721Z,97.37
2019-02-07T13:43:23.413Z,108.93
2019-02-07T13:46:04.960Z,119.30
2019-02-07T13:48:38.654Z,100.70
2019-02-07T13:51:10.068Z,116.13
2019-02-07T13:53:59.418Z,104.20
2019-02-07T13:56:32.241Z,101.33
2019-02-07T13:59:03.188Z,111.80
2019-02-07T14:01:49.987Z,93.27
2019-02-07T14:04:37.795Z,102.00
2019-02-07T14:07:08.821Z,118.73
2019-02-07T14:09:42.727Z,119.17
2019-02-07T14:12:29.831Z,118.30
2019-02-07T14:15:00.666Z,111.87
2019-02-07T14:17:37.941Z,127.60
2019-02-07T14:20:11.215Z,107.60
2019-02-07T14:22:54.574Z,109.93
2019-02-07T14:25:28.363Z,131.93
2019-02-07T14:27:59.530Z,123.47
2019-02-07T14:30:33.149Z,110.60
2019-02-07T14:33:06.852Z,110.57
2019-02-07T14:35:55.134Z,99.00
2019-02-07T14:38:41.132Z,104.63
2019-02-07T14:41:12.175Z,116.37
2019-02-07T14:43:45.803Z,116.30
2019-02-07T14:46:31.661Z,119.73
2019-02-07T14:49:00.986Z,124.70
2019-02-07T14:51:30.448Z,109.50
2019-02-07T14:54:00.768Z,97.63
2019-02-07T14:56:30.477Z,103.83
2019-02-07T14:59:01.448Z,98.70
2019-02-07T15:01:30.970Z,99.80
2019-02-07T15:04:00.523Z,104.07
2019-02-07T15:06:29.951Z,94.77
2019-02-07T15:08:59.454Z,99.37
2019-02-07T15:11:29.239Z,107.47
2019-02-07T15:13:58.730Z,94.87
2019-02-07T15:16:28.172Z,104.00
2019-02-07T15:18:57.590Z,125.87
2019-02-07T15:21:26.912Z,108.37
2019-02-07T15:23:56.444Z,112.33
2019-02-07T15:26:26.282Z,101.50
2019-02-07T15:28:55.611Z,94.87
2019-02-07T15:31:24.853Z,101.67
2019-02-07T15:33:54.192Z,102.30
2019-02-07T15:36:23.517Z,93.40
2019-02-07T15:38:53.060Z,97.13
2019-02-07T15:41:22.694Z,82.83
2019-02-07T15:43:52.163Z,88.17
2019-02-07T15:46:21.596Z,106.37
2019-02-07T15:48:51.129Z,97.73
2019-02-07T15:51:20.829Z,124.20
2019-02-07T15:53:50.340Z,120.47
2019-02-07T15:56:20.189Z,120.33
2019-02-07T15:59:00.025Z,104.07
2019-02-07T16:01:31.139Z,89.83
2019-02-07T16:04:02.272Z,96.47
2019-02-07T16:06:31.725Z,119.53
2019-02-07T16:09:01.403Z,104.57
2019-02-07T16:11:30.644Z,109.17
2019-02-07T16:14:01.690Z,99.13
2019-02-07T16:16:31.323Z,86.17
2019-02-07T16:19:00.854Z,114.87
2019-02-07T16:21:30.145Z,121.27
2019-02-07T16:23:59.652Z,109.77
2019-02-07T16:26:29.039Z,112.20
2019-02-07T16:28:58.356Z,107.33
2019-02-07T16:31:27.849Z,114.07
2019-02-07T16:33:57.187Z,105.47
2019-02-07T16:36:26.574Z,99.13
2019-02-07T16:38:56.033Z,97.50
2019-02-07T16:41:25.738Z,119.83
2019-02-07T16:43:55.200Z,111.27
2019-02-07T16:46:24.583Z,113.67
2019-02-07T16:48:53.825Z,115.47
2019-02-07T16:51:23.455Z,112.00
2019-02-07T16:53:52.956Z,114.20
2019-02-07T16:56:23.329Z,113.30
2019-02-07T16:58:52.734Z,168.60
2019-02-07T17:01:22.183Z,106.20
2019-02-07T17:03:51.508Z,125.77
2019-02-07T17:06:22.410Z,104.00
2019-02-07T17:08:51.873Z,106.80
2019-02-07T17:11:21.397Z,122.60
2019-02-07T17:13:50.508Z,116.70
2019-02-07T17:16:19.907Z,161.43
2019-02-07T17:18:49.236Z,150.53
2019-02-07T17:21:18.950Z,132.30
2019-02-07T17:23:48.431Z,174.77
2019-02-07T17:26:23.787Z,142.60
2019-02-07T17:28:53.255Z,139.00
2019-02-07T17:34:12.361Z,127.53
2019-02-07T17:36:44.605Z,102.37
2019-02-07T17:39:14.090Z,102.37
2019-02-07T17:41:43.627Z,114.43
2019-02-07T17:44:22.664Z,115.20
2019-02-07T17:46:55.440Z,112.97
2019-02-07T17:49:24.947Z,155.80
2019-02-07T17:51:58.958Z,147.87
2019-02-07T17:54:28.464Z,129.90
2019-02-07T17:56:59.491Z,123.10
2019-02-07T17:59:29.191Z,136.77
2019-02-07T18:01:59.339Z,127.77
2019-02-07T18:04:32.935Z,129.07
2019-02-07T18:07:02.485Z,103.10
2019-02-07T18:09:34.571Z,127.30
2019-02-07T18:12:05.844Z,135.07
2019-02-07T18:14:35.139Z,128.07
2019-02-07T18:17:05.988Z,124.63
2019-02-07T18:19:38.211Z,116.23
2019-02-07T18:22:11.967Z,112.30
2019-02-07T18:24:51.823Z,125.37
2019-02-07T18:27:36.344Z,111.43
2019-02-07T18:30:18.902Z,102.00
2019-02-07T18:32:48.736Z,114.43
2019-02-07T18:35:19.091Z,80.63
2019-02-07T18:38:05.085Z,79.87
2019-02-07T18:40:34.524Z,80.70
2019-02-07T18:43:04.376Z,94.90
2019-02-07T18:45:36.780Z,105.17
2019-02-07T18:48:06.723Z,107.97
2019-02-07T18:50:43.601Z,100.77
2019-02-07T18:53:13.094Z,83.60
2019-02-07T18:55:44.244Z,90.27
2019-02-07T18:58:13.762Z,81.33
2019-02-07T19:00:43.075Z,79.60
2019-02-07T19:03:12.575Z,97.03
2019-02-07T19:05:41.921Z,107.80
2019-02-07T19:08:11.436Z,104.17
2019-02-07T19:10:41.473Z,115.80
2019-02-07T19:13:10.702Z,83.73
2019-02-07T19:15:43.070Z,71.50
2019-02-07T19:18:12.519Z,88.77
2019-02-07T19:20:44.635Z,61.90
2019-02-07T19:23:15.681Z,55.00
2019-02-07T19:25:46.010Z,48.57
2019-02-07T19:28:15.496Z,88.33
2019-02-07T19:30:45.603Z,67.60
2019-02-07T19:33:14.928Z,79.33
2019-02-07T19:35:44.433Z,76.17
2019-02-07T19:38:13.880Z,65.63
2019-02-07T19:40:43.386Z,64.70
2019-02-07T19:43:29.958Z,67.23
2019-02-07T19:45:59.346Z,75.27
2019-02-07T19:48:29.263Z,83.57
2019-02-07T19:50:59.054Z,74.63
2019-02-07T19:53:28.502Z,127.87
2019-02-07T19:55:57.902Z,100.07
2019-02-07T19:58:27.223Z,83.20
2019-02-07T20:00:56.634Z,80.00
2019-02-07T20:03:26.108Z,88.83
2019-02-07T20:05:55.615Z,101.03
2019-02-07T20:08:24.976Z,75.33
2019-02-07T20:10:54.512Z,77.33
2019-02-07T20:13:24.034Z,72.27
2019-02-07T20:15:53.662Z,76.43
2019-02-07T20:18:23.129Z,75.13
2019-02-07T20:20:52.737Z,99.77
2019-02-07T20:23:22.402Z,107.97
2019-02-07T20:25:51.887Z,86.93
2019-02-07T20:28:21.367Z,91.90
2019-02-07T20:33:19.842Z,68.37
2019-02-07T20:35:49.330Z,66.60
2019-02-07T20:38:18.748Z,79.43
2019-02-07T20:40:48.237Z,91.27
2019-02-07T20:43:17.674Z,96.63
2019-02-07T20:45:46.937Z,71.73
2019-02-07T20:48:16.284Z,79.47
2019-02-07T20:50:45.711Z,83.17
2019-02-07T20:53:16.582Z,68.30
2019-02-07T20:55:46.287Z,85.27
2019-02-07T20:58:15.834Z,89.50
2019-02-07T21:00:46.502Z,62.77
2019-02-07T21:03:15.889Z,67.40
2019-02-07T21:05:46.734Z,64.57
2019-02-07T21:08:16.055Z,63.03
2019-02-07T21:10:45.252Z,52.77
2019-02-07T21:13:14.570Z,62.80
2019-02-07T21:15:43.944Z,55.50
2019-02-07T21:18:13.334Z,56.43
2019-02-07T21:20:42.783Z,47.33
2019-02-07T21:23:13.994Z,44.17
2019-02-07T21:25:51.137Z,43.23
2019-02-07T21:28:21.501Z,44.37
2019-02-07T21:30:51.159Z,41.90
2019-02-07T21:33:20.967Z,44.23
2019-02-07T21:35:50.480Z,42.03
2019-02-07T21:38:20.053Z,44.43
2019-02-07T21:40:49.607Z,46.63
2019-02-07T21:43:19.266Z,39.10
2019-02-07T21:45:48.816Z,50.07
2019-02-07T21:48:18.410Z,51.50
2019-02-07T21:50:47.737Z,37.87
2019-02-07T21:53:17.361Z,42.73
2019-02-07T21:55:46.784Z,38.07
2019-02-07T21:58:16.626Z,41.30
2019-02-07T22:00:47.012Z,43.70
2019-02-07T22:03:16.624Z,53.43
2019-02-07T22:05:46.157Z,43.70
2019-02-07T22:08:15.664Z,53.90
2019-02-07T22:10:45.090Z,58.53
2019-02-07T22:13:14.850Z,51.03
2019-02-07T22:15:44.395Z,47.07
2019-02-07T22:18:13.623Z,48.63
2019-02-07T22:20:43.037Z,68.13
2019-02-07T22:23:12.518Z,136.67
2019-02-07T22:25:41.895Z,104.40
2019-02-07T22:28:11.830Z,151.83
2019-02-07T22:30:41.319Z,76.33
2019-02-07T22:33:10.635Z,59.43
2019-02-07T22:35:40.031Z,64.13
2019-02-07T22:38:09.458Z,66.90
2019-02-07T22:40:38.846Z,121.80
2019-02-07T22:43:08.586Z,100.73
2019-02-07T22:45:37.983Z,96.40
2019-02-07T22:48:07.502Z,113.10
2019-02-07T22:50:36.898Z,122.90
2019-02-07T22:53:06.510Z,172.77
2019-02-07T22:55:35.898Z,152.13
2019-02-07T22:58:06.832Z,129.03
2019-02-07T23:00:42.087Z,92.83
2019-02-07T23:03:16.008Z,89.30
2019-02-07T23:05:45.390Z,116.57
2019-02-07T23:08:14.954Z,94.67
2019-02-07T23:10:44.650Z,103.40
2019-02-07T23:13:14.081Z,73.70
2019-02-07T23:15:43.830Z,87.87
2019-02-07T23:18:13.262Z,67.63
2019-02-07T23:20:42.685Z,70.63
2019-02-07T23:23:12.651Z,55.87
2019-02-07T23:25:42.489Z,52.40
2019-02-07T23:28:12.115Z,38.90
2019-02-07T23:30:42.946Z,35.30
2019-02-07T23:33:12.372Z,36.60
2019-02-07T23:35:42.504Z,29.37
2019-02-07T23:38:12.247Z,38.30
2019-02-07T23:40:42.151Z,30.27
2019-02-07T23:43:11.869Z,20.30
2019-02-07T23:45:41.416Z,26.27
2019-02-07T23:48:10.772Z,26.77
2019-02-07T23:50:40.219Z,20.80
2019-02-07T23:53:14.629Z,28.60
2019-02-07T23:55:40.829Z,29.73
2019-02-07T23:58:10.352Z,26.60
